sensor_id;sensor_type;location;lat;lon;timestamp;temperature;humidity
52919;DHT22;38793;52.690;6.812;2023-07-08T00:02:09;18.00;99.90
52919;DHT22;38793;52.690;6.812;2023-07-08T00:04:36;17.90;99.90
52919;DHT22;38793;52.690;6.812;2023-07-08T00:07:02;17.90;99.90
52919;DHT22;38793;52.690;6.812;2023-07-08T00:09:27;17.80;99.90
52919;DHT22;38793;52.690;6.812;2023-07-08T00:11:53;17.80;99.90
52919;DHT22;38793;52.690;6.812;2023-07-08T00:14:18;17.80;99.90
52919;DHT22;38793;52.690;6.812;2023-07-08T00:16:44;17.80;99.90
52919;DHT22;38793;52.690;6.812;2023-07-08T00:19:10;17.80;99.90
52919;DHT22;38793;52.690;6.812;2023-07-08T00:21:36;17.70;99.90
52919;DHT22;38793;52.690;6.812;2023-07-08T00:24:02;17.70;99.90
52919;DHT22;38793;52.690;6.812;2023-07-08T00:26:29;17.70;99.90
52919;DHT22;38793;52.690;6.812;2023-07-08T00:28:55;17.70;99.90
52919;DHT22;38793;52.690;6.812;2023-07-08T00:31:22;17.70;99.90
52919;DHT22;38793;52.690;6.812;2023-07-08T00:33:52;17.70;99.90
52919;DHT22;38793;52.690;6.812;2023-07-08T00:36:21;17.70;99.90
52919;DHT22;38793;52.690;6.812;2023-07-08T00:38:47;17.60;99.90
52919;DHT22;38793;52.690;6.812;2023-07-08T00:41:23;17.60;99.90
52919;DHT22;38793;52.690;6.812;2023-07-08T00:43:55;17.60;99.90
52919;DHT22;38793;52.690;6.812;2023-07-08T00:51:41;17.50;99.90
52919;DHT22;38793;52.690;6.812;2023-07-08T00:54:14;17.50;99.90
52919;DHT22;38793;52.690;6.812;2023-07-08T00:56:43;17.40;99.90
52919;DHT22;38793;52.690;6.812;2023-07-08T00:59:21;17.50;99.90
52919;DHT22;38793;52.690;6.812;2023-07-08T01:01:49;17.40;99.90
52919;DHT22;38793;52.690;6.812;2023-07-08T01:04:20;17.40;99.90
52919;DHT22;38793;52.690;6.812;2023-07-08T01:06:50;17.30;99.90
52919;DHT22;38793;52.690;6.812;2023-07-08T01:09:24;17.40;99.90
52919;DHT22;38793;52.690;6.812;2023-07-08T01:11:53;17.30;99.90
52919;DHT22;38793;52.690;6.812;2023-07-08T01:14:20;17.30;99.90
52919;DHT22;38793;52.690;6.812;2023-07-08T01:16:47;17.20;99.90
52919;DHT22;38793;52.690;6.812;2023-07-08T01:19:16;17.20;99.90
52919;DHT22;38793;52.690;6.812;2023-07-08T01:22:06;17.20;99.90
52919;DHT22;38793;52.690;6.812;2023-07-08T01:24:34;17.20;99.90
52919;DHT22;38793;52.690;6.812;2023-07-08T01:27:02;17.20;99.90
52919;DHT22;38793;52.690;6.812;2023-07-08T01:29:28;17.10;99.90
52919;DHT22;38793;52.690;6.812;2023-07-08T01:31:58;17.10;99.90
52919;DHT22;38793;52.690;6.812;2023-07-08T01:34:29;17.10;99.90
52919;DHT22;38793;52.690;6.812;2023-07-08T01:36:57;17.10;99.90
52919;DHT22;38793;52.690;6.812;2023-07-08T01:39:25;17.10;99.90
52919;DHT22;38793;52.690;6.812;2023-07-08T01:41:51;17.10;99.90
52919;DHT22;38793;52.690;6.812;2023-07-08T01:44:37;17.00;99.90
52919;DHT22;38793;52.690;6.812;2023-07-08T01:47:07;17.00;99.90
52919;DHT22;38793;52.690;6.812;2023-07-08T01:49:36;17.00;99.90
52919;DHT22;38793;52.690;6.812;2023-07-08T01:52:02;16.90;99.90
52919;DHT22;38793;52.690;6.812;2023-07-08T01:54:28;16.90;99.90
52919;DHT22;38793;52.690;6.812;2023-07-08T01:56:55;16.90;99.90
52919;DHT22;38793;52.690;6.812;2023-07-08T01:59:21;16.90;99.90
52919;DHT22;38793;52.690;6.812;2023-07-08T02:01:47;16.90;99.90
52919;DHT22;38793;52.690;6.812;2023-07-08T02:04:15;16.90;99.90
52919;DHT22;38793;52.690;6.812;2023-07-08T02:06:40;16.80;99.90
52919;DHT22;38793;52.690;6.812;2023-07-08T02:09:07;16.80;99.90
52919;DHT22;38793;52.690;6.812;2023-07-08T02:11:33;16.80;99.90
52919;DHT22;38793;52.690;6.812;2023-07-08T02:13:59;16.70;99.90
52919;DHT22;38793;52.690;6.812;2023-07-08T02:16:26;16.80;99.90
52919;DHT22;38793;52.690;6.812;2023-07-08T02:18:51;16.70;99.90
52919;DHT22;38793;52.690;6.812;2023-07-08T02:21:17;16.70;99.90
52919;DHT22;38793;52.690;6.812;2023-07-08T02:23:46;16.70;99.90
52919;DHT22;38793;52.690;6.812;2023-07-08T02:26:11;16.70;99.90
52919;DHT22;38793;52.690;6.812;2023-07-08T02:28:37;16.70;99.90
52919;DHT22;38793;52.690;6.812;2023-07-08T02:31:03;16.60;99.90
52919;DHT22;38793;52.690;6.812;2023-07-08T02:33:28;16.60;99.90
52919;DHT22;38793;52.690;6.812;2023-07-08T02:35:58;16.60;99.90
52919;DHT22;38793;52.690;6.812;2023-07-08T02:38:25;16.50;99.90
52919;DHT22;38793;52.690;6.812;2023-07-08T02:40:50;16.50;99.90
52919;DHT22;38793;52.690;6.812;2023-07-08T02:43:16;16.50;99.90
52919;DHT22;38793;52.690;6.812;2023-07-08T02:45:41;16.50;99.90
52919;DHT22;38793;52.690;6.812;2023-07-08T02:48:07;16.50;99.90
52919;DHT22;38793;52.690;6.812;2023-07-08T02:50:33;16.40;99.90
52919;DHT22;38793;52.690;6.812;2023-07-08T02:52:58;16.40;99.90
52919;DHT22;38793;52.690;6.812;2023-07-08T02:55:24;16.40;99.90
52919;DHT22;38793;52.690;6.812;2023-07-08T02:57:49;16.40;99.90
52919;DHT22;38793;52.690;6.812;2023-07-08T03:00:15;16.40;99.90
52919;DHT22;38793;52.690;6.812;2023-07-08T03:02:41;16.30;99.90
52919;DHT22;38793;52.690;6.812;2023-07-08T03:05:07;16.30;99.90
52919;DHT22;38793;52.690;6.812;2023-07-08T03:07:33;16.30;99.90
52919;DHT22;38793;52.690;6.812;2023-07-08T03:09:58;16.30;99.90
52919;DHT22;38793;52.690;6.812;2023-07-08T03:12:24;16.20;99.90
52919;DHT22;38793;52.690;6.812;2023-07-08T03:14:50;16.20;99.90
52919;DHT22;38793;52.690;6.812;2023-07-08T03:17:15;16.20;99.90
52919;DHT22;38793;52.690;6.812;2023-07-08T03:19:42;16.20;99.90
52919;DHT22;38793;52.690;6.812;2023-07-08T03:22:07;16.20;99.90
52919;DHT22;38793;52.690;6.812;2023-07-08T03:24:33;16.10;99.90
52919;DHT22;38793;52.690;6.812;2023-07-08T03:26:58;16.20;99.90
52919;DHT22;38793;52.690;6.812;2023-07-08T03:29:26;16.20;99.90
52919;DHT22;38793;52.690;6.812;2023-07-08T03:31:51;16.20;99.90
52919;DHT22;38793;52.690;6.812;2023-07-08T03:34:17;16.10;99.90
52919;DHT22;38793;52.690;6.812;2023-07-08T03:36:48;16.10;99.90
52919;DHT22;38793;52.690;6.812;2023-07-08T03:39:19;16.10;99.90
52919;DHT22;38793;52.690;6.812;2023-07-08T03:41:45;16.10;99.90
52919;DHT22;38793;52.690;6.812;2023-07-08T03:44:12;16.10;99.90
52919;DHT22;38793;52.690;6.812;2023-07-08T03:46:38;16.10;99.90
52919;DHT22;38793;52.690;6.812;2023-07-08T03:49:05;16.10;99.90
52919;DHT22;38793;52.690;6.812;2023-07-08T03:51:33;16.20;99.90
52919;DHT22;38793;52.690;6.812;2023-07-08T03:54:00;16.10;99.90
52919;DHT22;38793;52.690;6.812;2023-07-08T03:56:25;16.20;99.90
52919;DHT22;38793;52.690;6.812;2023-07-08T03:58:51;16.20;99.90
52919;DHT22;38793;52.690;6.812;2023-07-08T04:01:19;16.20;99.90
52919;DHT22;38793;52.690;6.812;2023-07-08T04:03:46;16.20;99.90
52919;DHT22;38793;52.690;6.812;2023-07-08T04:06:13;16.20;99.90
52919;DHT22;38793;52.690;6.812;2023-07-08T04:08:39;16.10;99.90
52919;DHT22;38793;52.690;6.812;2023-07-08T04:11:05;16.10;99.90
52919;DHT22;38793;52.690;6.812;2023-07-08T04:13:31;16.10;99.90
52919;DHT22;38793;52.690;6.812;2023-07-08T04:15:59;16.10;99.90
52919;DHT22;38793;52.690;6.812;2023-07-08T04:18:26;16.20;99.90
52919;DHT22;38793;52.690;6.812;2023-07-08T04:20:52;16.20;99.90
52919;DHT22;38793;52.690;6.812;2023-07-08T04:23:19;16.20;99.90
52919;DHT22;38793;52.690;6.812;2023-07-08T04:25:45;16.20;99.90
52919;DHT22;38793;52.690;6.812;2023-07-08T04:28:11;16.20;99.90
52919;DHT22;38793;52.690;6.812;2023-07-08T04:30:36;16.30;99.90
52919;DHT22;38793;52.690;6.812;2023-07-08T04:33:07;16.30;99.90
52919;DHT22;38793;52.690;6.812;2023-07-08T04:35:34;16.30;99.90
52919;DHT22;38793;52.690;6.812;2023-07-08T04:38:02;16.30;99.90
52919;DHT22;38793;52.690;6.812;2023-07-08T04:40:35;16.30;99.90
52919;DHT22;38793;52.690;6.812;2023-07-08T04:43:09;16.40;99.90
52919;DHT22;38793;52.690;6.812;2023-07-08T04:45:42;16.40;99.90
52919;DHT22;38793;52.690;6.812;2023-07-08T04:48:13;16.50;99.90
52919;DHT22;38793;52.690;6.812;2023-07-08T04:50:41;16.50;99.90
52919;DHT22;38793;52.690;6.812;2023-07-08T04:53:07;16.50;99.90
52919;DHT22;38793;52.690;6.812;2023-07-08T04:55:34;16.60;99.90
52919;DHT22;38793;52.690;6.812;2023-07-08T04:58:00;16.60;99.90
52919;DHT22;38793;52.690;6.812;2023-07-08T05:00:27;16.60;99.90
52919;DHT22;38793;52.690;6.812;2023-07-08T05:02:53;16.70;99.90
52919;DHT22;38793;52.690;6.812;2023-07-08T05:05:19;16.80;99.90
52919;DHT22;38793;52.690;6.812;2023-07-08T05:07:45;16.80;99.90
52919;DHT22;38793;52.690;6.812;2023-07-08T05:10:11;16.90;99.90
52919;DHT22;38793;52.690;6.812;2023-07-08T05:12:36;16.90;99.90
52919;DHT22;38793;52.690;6.812;2023-07-08T05:15:03;17.00;99.90
52919;DHT22;38793;52.690;6.812;2023-07-08T05:17:29;17.10;99.90
52919;DHT22;38793;52.690;6.812;2023-07-08T05:19:55;17.20;99.90
52919;DHT22;38793;52.690;6.812;2023-07-08T05:22:23;17.30;99.90
52919;DHT22;38793;52.690;6.812;2023-07-08T05:24:51;17.40;99.90
52919;DHT22;38793;52.690;6.812;2023-07-08T05:27:18;17.50;99.90
52919;DHT22;38793;52.690;6.812;2023-07-08T05:29:46;17.60;99.90
52919;DHT22;38793;52.690;6.812;2023-07-08T05:32:12;17.80;99.90
52919;DHT22;38793;52.690;6.812;2023-07-08T05:34:37;17.80;99.90
52919;DHT22;38793;52.690;6.812;2023-07-08T05:37:03;17.90;99.90
52919;DHT22;38793;52.690;6.812;2023-07-08T05:39:30;18.00;99.90
52919;DHT22;38793;52.690;6.812;2023-07-08T05:41:56;18.10;99.90
52919;DHT22;38793;52.690;6.812;2023-07-08T05:44:21;18.20;99.90
52919;DHT22;38793;52.690;6.812;2023-07-08T05:46:48;18.30;99.90
52919;DHT22;38793;52.690;6.812;2023-07-08T05:49:14;18.40;99.90
52919;DHT22;38793;52.690;6.812;2023-07-08T05:51:40;18.50;99.90
52919;DHT22;38793;52.690;6.812;2023-07-08T05:54:05;18.60;99.90
52919;DHT22;38793;52.690;6.812;2023-07-08T05:56:31;18.60;99.90
52919;DHT22;38793;52.690;6.812;2023-07-08T05:58:56;18.70;99.90
52919;DHT22;38793;52.690;6.812;2023-07-08T06:01:22;18.80;99.90
52919;DHT22;38793;52.690;6.812;2023-07-08T06:03:48;18.90;99.90
52919;DHT22;38793;52.690;6.812;2023-07-08T06:06:13;19.00;99.90
52919;DHT22;38793;52.690;6.812;2023-07-08T06:08:39;19.00;99.90
52919;DHT22;38793;52.690;6.812;2023-07-08T06:11:05;19.10;99.90
52919;DHT22;38793;52.690;6.812;2023-07-08T06:13:30;19.20;99.90
52919;DHT22;38793;52.690;6.812;2023-07-08T06:15:56;19.30;99.90
52919;DHT22;38793;52.690;6.812;2023-07-08T06:18:22;19.40;99.90
52919;DHT22;38793;52.690;6.812;2023-07-08T06:20:55;19.50;99.90
52919;DHT22;38793;52.690;6.812;2023-07-08T06:23:21;19.50;99.90
52919;DHT22;38793;52.690;6.812;2023-07-08T06:25:47;19.60;99.90
52919;DHT22;38793;52.690;6.812;2023-07-08T06:28:12;19.70;99.90
52919;DHT22;38793;52.690;6.812;2023-07-08T06:30:38;19.80;99.90
52919;DHT22;38793;52.690;6.812;2023-07-08T06:33:03;19.90;99.90
52919;DHT22;38793;52.690;6.812;2023-07-08T06:35:29;20.00;99.90
52919;DHT22;38793;52.690;6.812;2023-07-08T06:37:54;20.00;99.90
52919;DHT22;38793;52.690;6.812;2023-07-08T06:40:20;20.10;99.90
52919;DHT22;38793;52.690;6.812;2023-07-08T06:42:46;20.20;99.90
52919;DHT22;38793;52.690;6.812;2023-07-08T06:45:12;20.30;99.90
52919;DHT22;38793;52.690;6.812;2023-07-08T06:47:37;20.50;99.90
52919;DHT22;38793;52.690;6.812;2023-07-08T06:50:03;20.60;99.90
52919;DHT22;38793;52.690;6.812;2023-07-08T06:52:29;20.70;99.90
52919;DHT22;38793;52.690;6.812;2023-07-08T06:55:01;20.80;99.90
52919;DHT22;38793;52.690;6.812;2023-07-08T06:57:28;20.80;99.90
52919;DHT22;38793;52.690;6.812;2023-07-08T06:59:53;20.90;99.90
52919;DHT22;38793;52.690;6.812;2023-07-08T07:02:19;21.10;99.90
52919;DHT22;38793;52.690;6.812;2023-07-08T07:04:45;21.10;99.90
52919;DHT22;38793;52.690;6.812;2023-07-08T07:07:11;21.20;99.90
52919;DHT22;38793;52.690;6.812;2023-07-08T07:09:36;21.30;99.90
52919;DHT22;38793;52.690;6.812;2023-07-08T07:12:02;21.40;99.90
52919;DHT22;38793;52.690;6.812;2023-07-08T07:14:28;21.50;99.90
52919;DHT22;38793;52.690;6.812;2023-07-08T07:16:54;21.50;99.90
52919;DHT22;38793;52.690;6.812;2023-07-08T07:19:19;21.60;99.90
52919;DHT22;38793;52.690;6.812;2023-07-08T07:21:47;21.80;99.90
52919;DHT22;38793;52.690;6.812;2023-07-08T07:24:12;21.90;99.90
52919;DHT22;38793;52.690;6.812;2023-07-08T07:26:38;21.90;99.90
52919;DHT22;38793;52.690;6.812;2023-07-08T07:29:04;22.00;99.90
52919;DHT22;38793;52.690;6.812;2023-07-08T07:31:29;22.10;99.60
52919;DHT22;38793;52.690;6.812;2023-07-08T07:33:56;22.20;99.60
52919;DHT22;38793;52.690;6.812;2023-07-08T07:36:21;22.30;98.90
52919;DHT22;38793;52.690;6.812;2023-07-08T07:38:47;22.40;99.90
52919;DHT22;38793;52.690;6.812;2023-07-08T07:41:12;22.50;99.50
52919;DHT22;38793;52.690;6.812;2023-07-08T07:43:38;22.60;99.80
52919;DHT22;38793;52.690;6.812;2023-07-08T07:46:04;22.70;99.30
52919;DHT22;38793;52.690;6.812;2023-07-08T07:48:31;22.90;99.20
52919;DHT22;38793;52.690;6.812;2023-07-08T07:50:57;23.00;99.20
52919;DHT22;38793;52.690;6.812;2023-07-08T07:53:23;23.10;99.10
52919;DHT22;38793;52.690;6.812;2023-07-08T07:55:58;23.20;98.00
52919;DHT22;38793;52.690;6.812;2023-07-08T07:58:24;23.20;98.10
52919;DHT22;38793;52.690;6.812;2023-07-08T08:00:50;23.30;98.60
52919;DHT22;38793;52.690;6.812;2023-07-08T08:03:16;23.40;98.30
52919;DHT22;38793;52.690;6.812;2023-07-08T08:05:42;23.50;98.20
52919;DHT22;38793;52.690;6.812;2023-07-08T08:08:07;23.60;97.80
52919;DHT22;38793;52.690;6.812;2023-07-08T08:10:35;23.50;97.00
52919;DHT22;38793;52.690;6.812;2023-07-08T08:13:02;23.60;97.10
52919;DHT22;38793;52.690;6.812;2023-07-08T08:15:28;23.70;96.70
52919;DHT22;38793;52.690;6.812;2023-07-08T08:17:54;23.80;97.30
52919;DHT22;38793;52.690;6.812;2023-07-08T08:20:22;23.90;96.70
52919;DHT22;38793;52.690;6.812;2023-07-08T08:22:48;24.00;96.70
52919;DHT22;38793;52.690;6.812;2023-07-08T08:25:18;24.00;96.50
52919;DHT22;38793;52.690;6.812;2023-07-08T08:27:44;24.10;96.20
52919;DHT22;38793;52.690;6.812;2023-07-08T08:30:10;24.00;96.00
52919;DHT22;38793;52.690;6.812;2023-07-08T08:32:36;23.90;96.80
52919;DHT22;38793;52.690;6.812;2023-07-08T08:35:02;23.90;96.80
52919;DHT22;38793;52.690;6.812;2023-07-08T08:37:28;23.90;96.70
52919;DHT22;38793;52.690;6.812;2023-07-08T08:39:53;23.90;96.70
52919;DHT22;38793;52.690;6.812;2023-07-08T08:42:38;24.00;97.10
52919;DHT22;38793;52.690;6.812;2023-07-08T08:45:05;24.10;96.40
52919;DHT22;38793;52.690;6.812;2023-07-08T08:47:42;24.20;96.50
52919;DHT22;38793;52.690;6.812;2023-07-08T08:52:44;24.40;96.90
52919;DHT22;38793;52.690;6.812;2023-07-08T08:55:13;24.60;96.10
52919;DHT22;38793;52.690;6.812;2023-07-08T08:58:05;24.70;96.20
52919;DHT22;38793;52.690;6.812;2023-07-08T09:00:51;24.90;95.90
52919;DHT22;38793;52.690;6.812;2023-07-08T09:06:24;25.10;95.00
52919;DHT22;38793;52.690;6.812;2023-07-08T09:08:51;25.20;94.80
52919;DHT22;38793;52.690;6.812;2023-07-08T09:13:56;25.40;94.90
52919;DHT22;38793;52.690;6.812;2023-07-08T09:16:43;25.50;94.80
52919;DHT22;38793;52.690;6.812;2023-07-08T09:19:18;25.60;94.80
52919;DHT22;38793;52.690;6.812;2023-07-08T09:21:51;25.80;94.30
52919;DHT22;38793;52.690;6.812;2023-07-08T09:26:50;26.00;93.70
52919;DHT22;38793;52.690;6.812;2023-07-08T09:29:17;26.20;93.80
52919;DHT22;38793;52.690;6.812;2023-07-08T09:31:43;26.30;94.40
52919;DHT22;38793;52.690;6.812;2023-07-08T09:34:11;26.30;93.80
52919;DHT22;38793;52.690;6.812;2023-07-08T09:36:42;26.40;93.20
52919;DHT22;38793;52.690;6.812;2023-07-08T09:39:17;26.50;93.50
52919;DHT22;38793;52.690;6.812;2023-07-08T09:41:44;26.70;93.10
52919;DHT22;38793;52.690;6.812;2023-07-08T09:44:27;26.80;92.90
52919;DHT22;38793;52.690;6.812;2023-07-08T09:46:57;26.80;92.70
52919;DHT22;38793;52.690;6.812;2023-07-08T09:49:35;27.00;93.00
52919;DHT22;38793;52.690;6.812;2023-07-08T09:52:02;27.10;92.80
52919;DHT22;38793;52.690;6.812;2023-07-08T09:54:30;27.10;92.00
52919;DHT22;38793;52.690;6.812;2023-07-08T09:59:49;27.40;91.90
52919;DHT22;38793;52.690;6.812;2023-07-08T10:04:45;27.40;92.10
52919;DHT22;38793;52.690;6.812;2023-07-08T10:07:16;27.50;91.90
52919;DHT22;38793;52.690;6.812;2023-07-08T10:09:42;27.70;91.50
52919;DHT22;38793;52.690;6.812;2023-07-08T10:12:12;27.80;91.50
52919;DHT22;38793;52.690;6.812;2023-07-08T10:14:48;27.80;91.00
52919;DHT22;38793;52.690;6.812;2023-07-08T10:17:17;27.90;90.90
52919;DHT22;38793;52.690;6.812;2023-07-08T10:19:44;28.00;91.30
52919;DHT22;38793;52.690;6.812;2023-07-08T10:22:27;28.10;91.50
52919;DHT22;38793;52.690;6.812;2023-07-08T10:25:16;28.20;91.50
52919;DHT22;38793;52.690;6.812;2023-07-08T10:30:53;28.30;90.10
52919;DHT22;38793;52.690;6.812;2023-07-08T10:33:45;28.40;89.70
52919;DHT22;38793;52.690;6.812;2023-07-08T10:36:22;28.50;88.90
52919;DHT22;38793;52.690;6.812;2023-07-08T10:42:14;28.50;88.20
52919;DHT22;38793;52.690;6.812;2023-07-08T10:47:42;28.70;88.00
52919;DHT22;38793;52.690;6.812;2023-07-08T10:55:59;29.10;85.10
52919;DHT22;38793;52.690;6.812;2023-07-08T11:02:02;29.30;83.90
52919;DHT22;38793;52.690;6.812;2023-07-08T11:07:22;29.60;82.20
52919;DHT22;38793;52.690;6.812;2023-07-08T11:09:56;29.70;81.00
52919;DHT22;38793;52.690;6.812;2023-07-08T11:15:16;29.80;84.40
52919;DHT22;38793;52.690;6.812;2023-07-08T11:17:54;29.90;78.60
52919;DHT22;38793;52.690;6.812;2023-07-08T11:20:24;30.00;80.10
52919;DHT22;38793;52.690;6.812;2023-07-08T11:23:29;30.10;78.50
52919;DHT22;38793;52.690;6.812;2023-07-08T11:26:23;30.10;75.50
52919;DHT22;38793;52.690;6.812;2023-07-08T11:28:51;30.20;76.70
52919;DHT22;38793;52.690;6.812;2023-07-08T11:31:18;30.20;75.00
52919;DHT22;38793;52.690;6.812;2023-07-08T11:33:45;30.30;74.00
52919;DHT22;38793;52.690;6.812;2023-07-08T11:36:13;30.30;75.60
52919;DHT22;38793;52.690;6.812;2023-07-08T11:38:47;30.40;74.50
52919;DHT22;38793;52.690;6.812;2023-07-08T11:41:16;30.40;74.20
52919;DHT22;38793;52.690;6.812;2023-07-08T11:43:49;30.50;76.00
52919;DHT22;38793;52.690;6.812;2023-07-08T11:46:26;30.60;73.00
52919;DHT22;38793;52.690;6.812;2023-07-08T11:48:56;30.60;71.90
52919;DHT22;38793;52.690;6.812;2023-07-08T11:51:28;30.60;71.70
52919;DHT22;38793;52.690;6.812;2023-07-08T11:57:04;30.60;73.10
52919;DHT22;38793;52.690;6.812;2023-07-08T11:59:33;30.60;71.20
52919;DHT22;38793;52.690;6.812;2023-07-08T12:02:03;30.70;72.40
52919;DHT22;38793;52.690;6.812;2023-07-08T12:04:33;30.70;71.40
52919;DHT22;38793;52.690;6.812;2023-07-08T12:07:12;30.90;70.40
52919;DHT22;38793;52.690;6.812;2023-07-08T12:09:45;31.00;71.40
52919;DHT22;38793;52.690;6.812;2023-07-08T12:12:27;31.10;69.90
52919;DHT22;38793;52.690;6.812;2023-07-08T12:15:04;31.20;70.80
52919;DHT22;38793;52.690;6.812;2023-07-08T12:17:30;31.40;70.70
52919;DHT22;38793;52.690;6.812;2023-07-08T12:19:58;31.40;70.10
52919;DHT22;38793;52.690;6.812;2023-07-08T12:22:25;31.50;69.50
52919;DHT22;38793;52.690;6.812;2023-07-08T12:24:51;31.40;67.50
52919;DHT22;38793;52.690;6.812;2023-07-08T12:27:16;31.40;67.10
52919;DHT22;38793;52.690;6.812;2023-07-08T12:29:42;31.50;67.50
52919;DHT22;38793;52.690;6.812;2023-07-08T12:32:11;31.60;68.40
52919;DHT22;38793;52.690;6.812;2023-07-08T12:34:37;31.70;67.20
52919;DHT22;38793;52.690;6.812;2023-07-08T12:37:04;31.70;67.60
52919;DHT22;38793;52.690;6.812;2023-07-08T12:39:33;31.70;67.50
52919;DHT22;38793;52.690;6.812;2023-07-08T12:41:59;31.70;64.00
52919;DHT22;38793;52.690;6.812;2023-07-08T12:44:26;31.80;65.00
52919;DHT22;38793;52.690;6.812;2023-07-08T12:46:53;31.90;65.50
52919;DHT22;38793;52.690;6.812;2023-07-08T12:49:20;31.90;65.20
52919;DHT22;38793;52.690;6.812;2023-07-08T12:51:46;31.90;64.30
52919;DHT22;38793;52.690;6.812;2023-07-08T12:54:13;32.00;65.00
52919;DHT22;38793;52.690;6.812;2023-07-08T12:56:43;32.10;64.00
52919;DHT22;38793;52.690;6.812;2023-07-08T12:59:19;32.10;63.00
52919;DHT22;38793;52.690;6.812;2023-07-08T13:01:46;32.10;62.40
52919;DHT22;38793;52.690;6.812;2023-07-08T13:04:13;32.10;64.20
52919;DHT22;38793;52.690;6.812;2023-07-08T13:06:40;32.20;64.30
52919;DHT22;38793;52.690;6.812;2023-07-08T13:11:41;32.20;62.30
52919;DHT22;38793;52.690;6.812;2023-07-08T13:14:07;32.30;63.50
52919;DHT22;38793;52.690;6.812;2023-07-08T13:16:34;32.30;62.80
52919;DHT22;38793;52.690;6.812;2023-07-08T13:19:00;32.30;63.80
52919;DHT22;38793;52.690;6.812;2023-07-08T13:21:26;32.40;62.80
52919;DHT22;38793;52.690;6.812;2023-07-08T13:23:54;32.40;62.50
52919;DHT22;38793;52.690;6.812;2023-07-08T13:26:22;32.40;61.50
52919;DHT22;38793;52.690;6.812;2023-07-08T13:28:49;32.50;61.40
52919;DHT22;38793;52.690;6.812;2023-07-08T13:31:20;32.40;61.30
52919;DHT22;38793;52.690;6.812;2023-07-08T13:33:51;32.40;61.20
52919;DHT22;38793;52.690;6.812;2023-07-08T13:36:20;32.50;60.90
52919;DHT22;38793;52.690;6.812;2023-07-08T13:38:46;32.50;61.60
52919;DHT22;38793;52.690;6.812;2023-07-08T13:41:19;32.60;61.60
52919;DHT22;38793;52.690;6.812;2023-07-08T13:43:45;32.70;59.70
52919;DHT22;38793;52.690;6.812;2023-07-08T13:46:32;32.70;60.40
52919;DHT22;38793;52.690;6.812;2023-07-08T13:49:23;32.70;61.20
52919;DHT22;38793;52.690;6.812;2023-07-08T13:51:46;32.80;60.80
52919;DHT22;38793;52.690;6.812;2023-07-08T13:54:19;32.90;60.80
52919;DHT22;38793;52.690;6.812;2023-07-08T13:56:44;32.90;60.20
52919;DHT22;38793;52.690;6.812;2023-07-08T13:59:17;32.90;58.40
52919;DHT22;38793;52.690;6.812;2023-07-08T14:01:44;32.90;58.20
52919;DHT22;38793;52.690;6.812;2023-07-08T14:04:13;32.90;59.60
52919;DHT22;38793;52.690;6.812;2023-07-08T14:06:40;32.90;57.50
52919;DHT22;38793;52.690;6.812;2023-07-08T14:09:26;32.90;57.90
52919;DHT22;38793;52.690;6.812;2023-07-08T14:11:52;32.90;58.00
52919;DHT22;38793;52.690;6.812;2023-07-08T14:14:19;32.80;58.00
52919;DHT22;38793;52.690;6.812;2023-07-08T14:16:50;32.80;56.70
52919;DHT22;38793;52.690;6.812;2023-07-08T14:19:24;32.90;57.20
52919;DHT22;38793;52.690;6.812;2023-07-08T14:21:54;32.90;56.50
52919;DHT22;38793;52.690;6.812;2023-07-08T14:24:20;33.00;57.60
52919;DHT22;38793;52.690;6.812;2023-07-08T14:26:46;33.00;57.50
52919;DHT22;38793;52.690;6.812;2023-07-08T14:29:13;33.00;57.40
52919;DHT22;38793;52.690;6.812;2023-07-08T14:31:39;33.10;57.50
52919;DHT22;38793;52.690;6.812;2023-07-08T14:34:13;33.00;57.20
52919;DHT22;38793;52.690;6.812;2023-07-08T14:36:42;33.00;55.50
52919;DHT22;38793;52.690;6.812;2023-07-08T14:39:13;33.00;55.70
52919;DHT22;38793;52.690;6.812;2023-07-08T14:41:40;33.00;57.10
52919;DHT22;38793;52.690;6.812;2023-07-08T14:44:26;33.00;57.40
52919;DHT22;38793;52.690;6.812;2023-07-08T14:46:56;33.00;57.00
52919;DHT22;38793;52.690;6.812;2023-07-08T14:49:22;33.00;56.70
52919;DHT22;38793;52.690;6.812;2023-07-08T14:51:49;33.00;55.80
52919;DHT22;38793;52.690;6.812;2023-07-08T14:54:14;32.90;55.80
52919;DHT22;38793;52.690;6.812;2023-07-08T14:56:41;32.80;55.30
52919;DHT22;38793;52.690;6.812;2023-07-08T14:59:13;32.80;56.00
52919;DHT22;38793;52.690;6.812;2023-07-08T15:01:40;32.80;55.90
52919;DHT22;38793;52.690;6.812;2023-07-08T15:04:11;32.80;54.40
52919;DHT22;38793;52.690;6.812;2023-07-08T15:06:37;32.80;56.10
52919;DHT22;38793;52.690;6.812;2023-07-08T15:09:02;32.90;55.40
52919;DHT22;38793;52.690;6.812;2023-07-08T15:11:28;32.80;54.80
52919;DHT22;38793;52.690;6.812;2023-07-08T15:13:54;32.70;55.00
52919;DHT22;38793;52.690;6.812;2023-07-08T15:16:20;32.70;54.80
52919;DHT22;38793;52.690;6.812;2023-07-08T15:18:45;32.70;54.60
52919;DHT22;38793;52.690;6.812;2023-07-08T15:21:12;32.70;55.10
52919;DHT22;38793;52.690;6.812;2023-07-08T15:23:38;32.70;54.70
52919;DHT22;38793;52.690;6.812;2023-07-08T15:26:04;32.70;55.50
52919;DHT22;38793;52.690;6.812;2023-07-08T15:28:46;32.70;54.80
52919;DHT22;38793;52.690;6.812;2023-07-08T15:31:18;32.60;53.70
52919;DHT22;38793;52.690;6.812;2023-07-08T15:33:45;32.50;53.50
52919;DHT22;38793;52.690;6.812;2023-07-08T15:36:12;32.40;53.70
52919;DHT22;38793;52.690;6.812;2023-07-08T15:38:39;32.30;55.10
52919;DHT22;38793;52.690;6.812;2023-07-08T15:41:05;32.30;55.40
52919;DHT22;38793;52.690;6.812;2023-07-08T15:43:34;32.30;55.20
52919;DHT22;38793;52.690;6.812;2023-07-08T15:46:01;32.20;55.20
52919;DHT22;38793;52.690;6.812;2023-07-08T15:48:27;32.20;54.50
52919;DHT22;38793;52.690;6.812;2023-07-08T15:50:53;32.20;54.40
52919;DHT22;38793;52.690;6.812;2023-07-08T15:53:18;32.20;55.40
52919;DHT22;38793;52.690;6.812;2023-07-08T15:55:45;32.20;56.90
52919;DHT22;38793;52.690;6.812;2023-07-08T15:58:26;32.20;54.70
52919;DHT22;38793;52.690;6.812;2023-07-08T16:00:53;32.20;54.70
52919;DHT22;38793;52.690;6.812;2023-07-08T16:03:24;32.20;55.10
52919;DHT22;38793;52.690;6.812;2023-07-08T16:05:51;32.20;54.60
52919;DHT22;38793;52.690;6.812;2023-07-08T16:08:17;32.20;54.60
52919;DHT22;38793;52.690;6.812;2023-07-08T16:10:44;32.20;55.90
52919;DHT22;38793;52.690;6.812;2023-07-08T16:13:12;32.20;55.50
52919;DHT22;38793;52.690;6.812;2023-07-08T16:15:37;32.20;56.60
52919;DHT22;38793;52.690;6.812;2023-07-08T16:18:04;32.20;56.30
52919;DHT22;38793;52.690;6.812;2023-07-08T16:20:34;32.20;55.70
52919;DHT22;38793;52.690;6.812;2023-07-08T16:22:59;32.10;55.90
52919;DHT22;38793;52.690;6.812;2023-07-08T16:25:41;32.10;55.80
52919;DHT22;38793;52.690;6.812;2023-07-08T16:28:16;32.10;55.00
52919;DHT22;38793;52.690;6.812;2023-07-08T16:30:43;32.10;56.10